Terminal Aerodrome Forecast
Issued by NWS

Home | Current Version | Previous Version | Text Only | Print | Product List | Glossary On
Versions: 1 2 3 4 5 6 7 8 9 10 11 12 13 14
000
FTUS46 KMTR 051120
TAFOAK
TAF
KOAK 051120Z 0512/0618 03005KT P6SM FEW015
     FM051700 25010KT P6SM SKC
     FM052100 25013KT P6SM SKC
     FM060400 25007KT P6SM SKC=

USA.gov is the U.S. government's official web portal to all federal, state and local government web resources and services.